createdAt,value
2018-07-16T01:55:47.533Z,72
2018-07-16T01:56:48.258Z,71
2018-07-16T01:57:48.971Z,72
2018-07-16T01:58:49.692Z,71
2018-07-16T01:59:50.411Z,71
2018-07-16T02:00:51.123Z,71
2018-07-16T02:01:51.835Z,71
2018-07-16T02:02:52.548Z,71
2018-07-16T02:03:53.277Z,71
2018-07-16T02:04:53.992Z,71
2018-07-16T02:05:54.715Z,71
2018-07-16T02:06:55.428Z,71
2018-07-16T02:07:56.151Z,71
2018-07-16T02:08:56.882Z,71
2018-07-16T02:09:57.608Z,71
2018-07-16T02:10:58.322Z,71
2018-07-16T02:11:59.035Z,71
2018-07-16T02:12:59.747Z,71
2018-07-16T02:14:00.473Z,71
2018-07-16T02:15:01.184Z,71
2018-07-16T02:16:01.912Z,71
2018-07-16T02:17:02.623Z,71
2018-07-16T02:18:03.338Z,71
2018-07-16T02:19:04.051Z,71
2018-07-16T02:20:05.168Z,71
2018-07-16T02:21:05.881Z,71
2018-07-16T02:22:06.592Z,71
2018-07-16T02:23:07.308Z,71
2018-07-16T02:24:08.022Z,71
2018-07-16T02:25:08.748Z,71
2018-07-16T02:26:09.463Z,71
2018-07-16T02:27:10.176Z,71
2018-07-16T02:28:10.889Z,71
2018-07-16T02:29:11.603Z,71
2018-07-16T02:30:12.317Z,71
2018-07-16T02:31:13.043Z,70
2018-07-16T02:32:13.754Z,71
2018-07-16T02:33:14.468Z,71
2018-07-16T02:34:15.180Z,71
2018-07-16T02:35:15.895Z,71
2018-07-16T02:36:16.608Z,71
2018-07-16T02:37:17.322Z,70
2018-07-16T02:38:18.048Z,71
2018-07-16T02:39:18.762Z,71
2018-07-16T02:40:19.474Z,70
2018-07-16T02:41:20.189Z,70
2018-07-16T02:42:20.902Z,71
2018-07-16T02:43:21.618Z,71
2018-07-16T02:44:22.336Z,71
2018-07-16T02:45:23.045Z,71
2018-07-16T02:46:23.760Z,71
2018-07-16T02:47:24.487Z,71
2018-07-16T02:48:25.201Z,71
2018-07-16T02:49:25.929Z,70
2018-07-16T02:50:26.657Z,71
2018-07-16T02:51:27.382Z,70
2018-07-16T02:52:28.094Z,70
2018-07-16T02:53:28.807Z,70
2018-07-16T02:54:29.521Z,70
2018-07-16T02:55:30.234Z,71
2018-07-16T02:56:31.082Z,70
2018-07-16T02:57:31.662Z,70
2018-07-16T02:58:32.400Z,70
2018-07-16T02:59:33.103Z,71
2018-07-16T03:00:33.816Z,71
2018-07-16T03:01:34.530Z,70
2018-07-16T03:02:35.263Z,70
2018-07-16T03:03:35.972Z,70
2018-07-16T03:04:36.687Z,70
2018-07-16T03:05:37.403Z,71
2018-07-16T03:06:38.120Z,70
2018-07-16T03:07:38.843Z,70
2018-07-16T03:08:39.563Z,70
2018-07-16T03:09:40.273Z,70
2018-07-16T03:10:40.988Z,70
2018-07-16T03:11:41.702Z,70
2018-07-16T03:12:42.416Z,70
2018-07-16T03:13:43.130Z,70
2018-07-16T03:14:43.844Z,70
2018-07-16T03:15:44.558Z,70
2018-07-16T03:16:45.271Z,70
2018-07-16T03:17:46.003Z,70
2018-07-16T03:18:46.716Z,70
2018-07-16T03:19:47.431Z,70
2018-07-16T03:20:48.146Z,70
2018-07-16T03:21:48.864Z,70
2018-07-16T03:22:49.585Z,70
2018-07-16T03:23:50.300Z,70
2018-07-16T03:24:51.020Z,70
2018-07-16T03:25:51.745Z,70
2018-07-16T03:26:52.461Z,70
2018-07-16T03:27:53.178Z,70
2018-07-16T03:28:53.906Z,70
2018-07-16T03:29:54.624Z,70
2018-07-16T03:30:55.340Z,70
2018-07-16T03:31:56.071Z,70
2018-07-16T03:32:56.787Z,70
2018-07-16T03:33:57.504Z,70
2018-07-16T03:34:58.219Z,70
2018-07-16T03:35:58.935Z,69
2018-07-16T03:36:59.648Z,70
2018-07-16T03:38:00.365Z,70
2018-07-16T03:39:01.094Z,70
2018-07-16T03:40:01.808Z,70
2018-07-16T03:41:02.524Z,70
2018-07-16T03:42:03.240Z,69
2018-07-16T03:43:03.960Z,70
2018-07-16T03:44:04.677Z,70
2018-07-16T03:45:05.408Z,70
2018-07-16T03:46:06.126Z,70
2018-07-16T03:47:06.864Z,69
2018-07-16T03:48:07.629Z,69
2018-07-16T03:49:08.291Z,70
2018-07-16T03:50:09.007Z,69
2018-07-16T03:51:09.723Z,70
2018-07-16T03:52:10.441Z,70
2018-07-16T03:53:11.170Z,69
2018-07-16T03:54:11.889Z,70
2018-07-16T03:55:12.622Z,69
2018-07-16T03:56:13.337Z,70
2018-07-16T03:57:14.053Z,70
2018-07-16T03:58:14.770Z,70
2018-07-16T03:59:15.487Z,70
2018-07-16T04:01:31.797Z,70
2018-07-16T04:02:32.510Z,70
2018-07-16T04:03:33.244Z,70
2018-07-16T04:04:33.974Z,70
2018-07-16T04:05:34.691Z,70
2018-07-16T04:06:35.409Z,70
2018-07-16T04:07:36.125Z,69
2018-07-16T04:08:36.843Z,70
2018-07-16T04:09:37.560Z,70
2018-07-16T04:10:38.294Z,70
2018-07-16T04:11:39.019Z,70
2018-07-16T04:12:39.738Z,70
2018-07-16T04:13:40.456Z,70
2018-07-16T04:14:41.174Z,70
2018-07-16T04:15:41.899Z,69
2018-07-16T04:16:42.625Z,69
2018-07-16T04:17:43.357Z,70
2018-07-16T04:18:44.079Z,70
2018-07-16T04:19:44.797Z,70
2018-07-16T04:20:45.517Z,70
2018-07-16T04:21:46.235Z,70
2018-07-16T04:22:46.955Z,70
2018-07-16T04:23:47.673Z,69
2018-07-16T04:24:48.392Z,70
2018-07-16T04:25:49.124Z,70
2018-07-16T04:26:49.840Z,70
2018-07-16T04:27:50.558Z,70
2018-07-16T04:28:51.287Z,70
2018-07-16T04:29:52.007Z,70
2018-07-16T04:30:52.762Z,70
2018-07-16T04:31:53.444Z,70
2018-07-16T04:32:54.164Z,70
2018-07-16T04:33:54.882Z,70
2018-07-16T04:34:55.602Z,70
2018-07-16T04:35:56.319Z,70
2018-07-16T04:36:57.037Z,70
2018-07-16T04:37:57.756Z,71
2018-07-16T04:38:58.476Z,70
2018-07-16T04:39:59.314Z,70
2018-07-16T04:40:59.913Z,71
2018-07-16T04:42:00.633Z,70
2018-07-16T04:43:01.351Z,70
2018-07-16T04:44:02.073Z,70
2018-07-16T04:45:02.788Z,70
2018-07-16T04:46:03.510Z,70
2018-07-16T04:47:04.230Z,71
2018-07-16T04:48:04.949Z,71
2018-07-16T04:49:05.682Z,70
2018-07-16T04:50:06.415Z,70
2018-07-16T04:51:07.148Z,70
2018-07-16T04:52:07.879Z,71
2018-07-16T04:53:08.605Z,71
2018-07-16T04:54:09.323Z,71
2018-07-16T04:55:10.037Z,71
2018-07-16T04:56:10.814Z,71
2018-07-16T04:57:11.476Z,71
2018-07-16T04:58:12.196Z,71
2018-07-16T04:59:12.929Z,71
2018-07-16T05:00:13.662Z,71
2018-07-16T05:01:14.381Z,71
2018-07-16T05:02:15.101Z,71
2018-07-16T05:03:15.843Z,71
2018-07-16T05:04:16.552Z,71
2018-07-16T05:05:17.271Z,72
2018-07-16T05:06:17.990Z,72
2018-07-16T05:07:18.726Z,72
2018-07-16T05:08:19.443Z,72
2018-07-16T05:09:20.166Z,71
2018-07-16T05:10:20.895Z,72
2018-07-16T05:11:21.627Z,72
2018-07-16T05:12:22.344Z,73
2018-07-16T05:13:23.064Z,73
2018-07-16T05:14:23.784Z,73
2018-07-16T05:15:24.504Z,73
2018-07-16T05:16:25.236Z,74
2018-07-16T05:17:25.969Z,73
2018-07-16T05:18:26.837Z,73
2018-07-16T05:19:27.405Z,73
2018-07-16T05:20:28.124Z,73
2018-07-16T05:21:28.844Z,74
2018-07-16T05:22:29.578Z,74
2018-07-16T05:23:30.300Z,74
2018-07-16T05:24:31.018Z,74
2018-07-16T05:25:31.754Z,74
2018-07-16T05:26:32.472Z,74
2018-07-16T05:27:33.204Z,75
2018-07-16T05:28:33.921Z,75
2018-07-16T05:29:34.639Z,74
2018-07-16T05:30:35.368Z,74
2018-07-16T05:31:36.120Z,75
2018-07-16T05:32:37.015Z,75
2018-07-16T05:33:37.548Z,75
2018-07-16T05:34:38.267Z,75
2018-07-16T05:35:38.986Z,75
2018-07-16T05:36:39.716Z,75
2018-07-16T05:37:40.436Z,75
2018-07-16T05:38:41.178Z,75
2018-07-16T05:39:41.876Z,75
2018-07-16T05:40:42.600Z,75
2018-07-16T05:41:43.328Z,76
2018-07-16T05:42:44.047Z,76
2018-07-16T05:43:44.769Z,76
2018-07-16T05:44:45.485Z,76
2018-07-16T05:45:46.206Z,76
2018-07-16T05:46:46.927Z,76
2018-07-16T05:47:47.643Z,76
2018-07-16T05:48:48.374Z,77
2018-07-16T05:49:49.091Z,77
2018-07-16T05:50:49.814Z,77
2018-07-16T05:51:50.543Z,77
2018-07-16T05:52:51.276Z,77
2018-07-16T05:53:52.009Z,77
2018-07-16T05:54:52.728Z,77
2018-07-16T05:55:53.453Z,77
2018-07-16T05:56:54.183Z,77
2018-07-16T05:57:54.900Z,77
2018-07-16T05:58:55.620Z,77
2018-07-16T05:59:56.342Z,77
2018-07-16T06:00:57.072Z,77
2018-07-16T06:01:57.792Z,77
2018-07-16T06:02:58.509Z,77
2018-07-16T06:03:59.227Z,77
2018-07-16T06:04:59.946Z,77
2018-07-16T06:06:00.665Z,78
2018-07-16T06:07:01.388Z,77
2018-07-16T06:08:02.118Z,77
2018-07-16T06:09:02.837Z,77
2018-07-16T06:10:03.559Z,77
2018-07-16T06:11:04.276Z,77
2018-07-16T06:12:04.995Z,78
2018-07-16T06:13:05.727Z,77
2018-07-16T06:14:06.449Z,77
2018-07-16T06:15:07.175Z,77
2018-07-16T06:16:07.891Z,77
2018-07-16T06:17:08.631Z,77
2018-07-16T06:18:09.343Z,77
2018-07-16T06:19:10.077Z,77
2018-07-16T06:20:10.796Z,77
2018-07-16T06:21:11.515Z,77
2018-07-16T06:22:12.248Z,77
2018-07-16T06:23:12.967Z,77
2018-07-16T06:24:13.700Z,77
2018-07-16T06:25:14.420Z,77
2018-07-16T06:26:15.155Z,77
2018-07-16T06:27:15.875Z,76
2018-07-16T06:28:16.631Z,77
2018-07-16T06:29:17.317Z,77
2018-07-16T06:30:18.038Z,77
2018-07-16T06:31:18.759Z,78
2018-07-16T06:32:19.493Z,77
2018-07-16T06:33:20.200Z,76
2018-07-16T06:34:20.920Z,76
2018-07-16T06:35:21.640Z,76
2018-07-16T06:36:22.360Z,76
2018-07-16T06:37:23.082Z,75
2018-07-16T06:38:23.802Z,76
2018-07-16T06:39:24.523Z,75
2018-07-16T06:40:25.453Z,75
2018-07-16T06:41:26.412Z,75
2018-07-16T06:42:26.704Z,76
2018-07-16T06:43:27.436Z,76
2018-07-16T06:44:28.186Z,76
2018-07-16T06:45:28.920Z,76
2018-07-16T06:46:29.655Z,75
2018-07-16T06:47:30.377Z,75
2018-07-16T06:48:31.098Z,74
2018-07-16T06:49:31.821Z,74
2018-07-16T06:50:32.541Z,74
2018-07-16T06:51:33.261Z,73
2018-07-16T06:52:34.034Z,74
2018-07-16T06:53:34.753Z,73
2018-07-16T06:54:35.477Z,73
2018-07-16T06:55:36.212Z,73
2018-07-16T06:56:36.935Z,72
2018-07-16T06:57:37.653Z,72
2018-07-16T06:58:38.375Z,72
2018-07-16T06:59:39.098Z,71
2018-07-16T07:00:39.821Z,71
2018-07-16T07:01:40.542Z,71
2018-07-16T07:02:41.274Z,71
2018-07-16T07:03:42.010Z,70
2018-07-16T07:04:42.730Z,70
2018-07-16T07:05:43.452Z,71
2018-07-16T07:06:44.174Z,71
2018-07-16T07:07:44.894Z,71
2018-07-16T07:08:45.617Z,70
2018-07-16T07:09:46.355Z,71
2018-07-16T07:10:47.075Z,71
2018-07-16T07:11:47.797Z,70
2018-07-16T07:12:48.532Z,70
2018-07-16T07:13:49.256Z,69
2018-07-16T07:14:49.978Z,69
2018-07-16T07:15:50.703Z,70
2018-07-16T07:16:51.436Z,70
2018-07-16T07:17:52.160Z,69
2018-07-16T07:18:52.881Z,70
2018-07-16T07:19:53.603Z,69
2018-07-16T07:20:54.325Z,67
2018-07-16T07:21:55.048Z,68
2018-07-16T07:22:55.787Z,69
2018-07-16T07:23:56.508Z,69
2018-07-16T07:24:57.232Z,68
2018-07-16T07:25:57.953Z,67
2018-07-16T07:26:58.688Z,67
2018-07-16T07:27:59.411Z,65
2018-07-16T07:29:00.150Z,66
2018-07-16T07:30:00.873Z,64
2018-07-16T07:31:01.598Z,65
2018-07-16T07:32:02.323Z,63
2018-07-16T07:33:03.045Z,63
2018-07-16T07:34:03.766Z,64
2018-07-16T07:35:04.600Z,63
2018-07-16T07:36:05.296Z,61
2018-07-16T07:37:05.953Z,60
2018-07-16T07:38:06.692Z,60
2018-07-16T07:39:07.419Z,61
2018-07-16T07:40:08.156Z,60
2018-07-16T07:41:08.882Z,59
2018-07-16T07:42:09.609Z,59
2018-07-16T07:43:10.352Z,58
2018-07-16T07:44:11.079Z,56
2018-07-16T07:45:11.825Z,57
2018-07-16T07:46:12.550Z,56
2018-07-16T07:47:13.292Z,55
2018-07-16T07:48:14.023Z,53
2018-07-16T07:49:14.749Z,53
2018-07-16T07:50:15.479Z,53
2018-07-16T07:51:16.212Z,52
2018-07-16T07:52:16.948Z,53
2018-07-16T07:53:17.677Z,52
2018-07-16T07:54:18.519Z,52
2018-07-16T07:55:19.416Z,52
2018-07-16T07:56:19.871Z,52
2018-07-16T07:57:20.599Z,51
2018-07-16T07:58:21.343Z,51
2018-07-16T07:59:22.071Z,50
2018-07-16T08:00:22.802Z,50
2018-07-16T08:01:23.550Z,49
2018-07-16T08:02:24.276Z,48
2018-07-16T08:03:25.090Z,49
2018-07-16T08:04:25.754Z,49
2018-07-16T08:05:26.501Z,49
2018-07-16T08:06:27.240Z,49
2018-07-16T08:07:27.971Z,49
2018-07-16T08:08:28.702Z,50
2018-07-16T08:09:29.431Z,48
2018-07-16T08:10:30.161Z,48
2018-07-16T08:11:30.903Z,47
2018-07-16T08:12:31.647Z,46
2018-07-16T08:13:32.393Z,46
2018-07-16T08:14:33.121Z,46
2018-07-16T08:15:33.852Z,46
2018-07-16T08:16:34.585Z,45
2018-07-16T08:17:35.317Z,44
2018-07-16T08:18:36.047Z,44
2018-07-16T08:19:36.780Z,44
2018-07-16T08:20:37.511Z,46
2018-07-16T08:21:38.246Z,46
2018-07-16T08:22:38.980Z,45
2018-07-16T08:23:39.714Z,45
2018-07-16T08:24:40.446Z,45
2018-07-16T08:25:41.180Z,44
2018-07-16T08:26:41.914Z,43
2018-07-16T08:27:42.649Z,43
2018-07-16T08:28:43.387Z,43
2018-07-16T08:29:44.131Z,41
2018-07-16T08:30:44.865Z,41
2018-07-16T08:31:45.603Z,40
2018-07-16T08:32:46.341Z,39
2018-07-16T08:33:47.159Z,38
2018-07-16T08:34:47.822Z,38
2018-07-16T08:35:48.565Z,39
2018-07-16T08:36:49.304Z,38
2018-07-16T08:37:50.042Z,39
2018-07-16T08:38:50.784Z,39
2018-07-16T08:39:51.526Z,39
2018-07-16T08:40:52.281Z,40
2018-07-16T08:41:53.024Z,39
2018-07-16T08:42:53.763Z,41
2018-07-16T08:43:54.518Z,39
2018-07-16T08:44:55.279Z,39
2018-07-16T08:45:56.015Z,38
2018-07-16T08:46:56.776Z,38
2018-07-16T08:47:57.516Z,39
2018-07-16T08:48:58.263Z,38
2018-07-16T08:49:59.019Z,38
2018-07-16T08:50:59.761Z,38
2018-07-16T08:52:00.523Z,38
2018-07-16T08:53:01.252Z,37
2018-07-16T08:54:02.007Z,36
2018-07-16T08:55:02.762Z,35
2018-07-16T08:56:03.517Z,35
2018-07-16T08:57:04.272Z,34
2018-07-16T08:58:05.017Z,33
2018-07-16T08:59:05.768Z,34
2018-07-16T09:00:06.508Z,34
2018-07-16T09:01:07.249Z,34
2018-07-16T09:02:08.002Z,34
2018-07-16T09:03:08.742Z,34
2018-07-16T09:04:09.562Z,34
2018-07-16T09:05:10.272Z,34
2018-07-16T09:06:10.993Z,34
2018-07-16T09:07:11.786Z,33
2018-07-16T09:08:12.473Z,32
2018-07-16T09:09:13.235Z,32
2018-07-16T09:10:13.985Z,33
2018-07-16T09:11:14.771Z,34
2018-07-16T09:12:15.482Z,35
2018-07-16T09:13:16.280Z,35
2018-07-16T09:14:16.965Z,35
2018-07-16T09:15:17.721Z,34
2018-07-16T09:16:18.462Z,34
2018-07-16T09:17:19.206Z,33
2018-07-16T09:18:19.948Z,34
2018-07-16T09:19:20.759Z,33
2018-07-16T09:20:21.447Z,32
2018-07-16T09:21:22.189Z,31
2018-07-16T09:22:22.931Z,30
2018-07-16T09:23:23.689Z,31
2018-07-16T09:24:24.432Z,31
2018-07-16T09:25:25.177Z,31
2018-07-16T09:26:25.919Z,31
2018-07-16T09:27:26.671Z,30
2018-07-16T09:28:27.416Z,30
2018-07-16T09:29:28.157Z,29
2018-07-16T09:30:28.904Z,29
2018-07-16T09:31:29.642Z,29
2018-07-16T09:32:30.385Z,29
2018-07-16T09:33:31.124Z,29
2018-07-16T09:34:31.868Z,29
2018-07-16T09:35:32.609Z,29
2018-07-16T09:36:33.362Z,29
2018-07-16T09:37:34.115Z,29
2018-07-16T09:38:34.854Z,29
2018-07-16T09:39:35.591Z,28
2018-07-16T09:40:36.329Z,27
2018-07-16T09:41:37.070Z,28
2018-07-16T09:42:37.807Z,29
2018-07-16T09:43:38.550Z,29
2018-07-16T09:44:39.291Z,29
2018-07-16T09:45:40.032Z,28
2018-07-16T09:46:40.772Z,28
2018-07-16T09:47:41.514Z,28
2018-07-16T09:48:42.253Z,28
2018-07-16T09:49:43.000Z,29
2018-07-16T09:50:43.750Z,29
2018-07-16T09:51:44.502Z,29
2018-07-16T09:52:45.246Z,28
2018-07-16T09:53:45.999Z,28
2018-07-16T09:54:46.740Z,28
2018-07-16T09:55:47.497Z,27
2018-07-16T09:56:48.237Z,26
2018-07-16T09:57:48.973Z,26
2018-07-16T09:58:49.726Z,26
2018-07-16T09:59:50.481Z,27
2018-07-16T10:00:51.230Z,27
2018-07-16T10:01:51.969Z,26
2018-07-16T10:02:52.707Z,26
2018-07-16T10:03:53.447Z,27
2018-07-16T10:04:54.187Z,26
2018-07-16T10:05:54.926Z,26
2018-07-16T10:06:55.663Z,26
2018-07-16T10:07:56.402Z,25
2018-07-16T10:08:57.140Z,26
2018-07-16T10:09:57.878Z,27
2018-07-16T10:10:58.618Z,26
2018-07-16T10:11:59.357Z,25
2018-07-16T10:13:00.097Z,25
2018-07-16T10:14:00.847Z,24
2018-07-16T10:15:01.602Z,23
2018-07-16T10:16:02.353Z,23
2018-07-16T10:17:03.095Z,23
2018-07-16T10:18:03.836Z,25
2018-07-16T10:19:04.575Z,24
2018-07-16T10:20:05.330Z,23
2018-07-16T10:21:06.051Z,23
2018-07-16T10:22:06.795Z,23
2018-07-16T10:23:07.532Z,23
2018-07-16T10:24:08.271Z,23
2018-07-16T10:25:09.010Z,22
2018-07-16T10:26:09.752Z,22
2018-07-16T10:27:10.489Z,22
2018-07-16T10:28:11.229Z,22
2018-07-16T10:29:11.969Z,21
2018-07-16T10:30:12.707Z,22
2018-07-16T10:31:13.447Z,21
2018-07-16T10:32:14.244Z,21
2018-07-16T10:33:14.941Z,21
2018-07-16T10:34:15.676Z,21
2018-07-16T10:35:16.416Z,21
2018-07-16T10:36:17.157Z,20
2018-07-16T10:37:17.912Z,20
2018-07-16T10:38:18.665Z,20
2018-07-16T10:39:19.461Z,20
2018-07-16T10:40:20.144Z,19
2018-07-16T10:41:20.886Z,19
2018-07-16T10:42:21.626Z,19
2018-07-16T10:43:22.365Z,20
2018-07-16T10:44:23.106Z,19
2018-07-16T10:45:23.849Z,19
2018-07-16T10:46:24.586Z,19
2018-07-16T10:47:25.329Z,19
2018-07-16T10:48:26.069Z,22
2018-07-16T10:49:26.807Z,23
2018-07-16T10:50:27.550Z,22
2018-07-16T10:51:28.315Z,21
2018-07-16T10:52:29.057Z,22
2018-07-16T10:53:29.796Z,22
2018-07-16T10:54:30.537Z,21
2018-07-16T10:55:31.291Z,20
2018-07-16T10:56:32.031Z,20
2018-07-16T10:57:32.771Z,21
2018-07-16T10:58:33.511Z,21
2018-07-16T10:59:34.253Z,21
2018-07-16T11:00:34.987Z,21
2018-07-16T11:01:35.726Z,21
2018-07-16T11:02:36.477Z,21
2018-07-16T11:03:37.230Z,20
2018-07-16T11:04:37.967Z,20
2018-07-16T11:05:38.705Z,20
2018-07-16T11:06:39.442Z,20
2018-07-16T11:07:40.195Z,19
2018-07-16T11:08:40.945Z,20
2018-07-16T11:09:41.681Z,20
2018-07-16T11:10:42.431Z,20
2018-07-16T11:11:43.177Z,19
2018-07-16T11:12:43.925Z,19
2018-07-16T11:13:44.658Z,18
2018-07-16T11:14:45.392Z,17
2018-07-16T11:15:46.129Z,18
2018-07-16T11:16:46.862Z,19
2018-07-16T11:17:47.608Z,19
2018-07-16T11:18:48.344Z,19
2018-07-16T11:19:49.079Z,19
2018-07-16T11:20:49.810Z,19
2018-07-16T11:21:50.554Z,18
2018-07-16T11:22:51.288Z,18
2018-07-16T11:23:52.019Z,18
2018-07-16T11:24:52.750Z,19
2018-07-16T11:25:53.483Z,19
2018-07-16T11:26:54.216Z,19
2018-07-16T11:27:54.947Z,19
2018-07-16T11:28:55.684Z,18
2018-07-16T11:29:56.421Z,17
2018-07-16T11:30:57.158Z,18
2018-07-16T11:31:57.905Z,19
2018-07-16T11:32:58.663Z,20
2018-07-16T11:33:59.399Z,21
2018-07-16T11:35:00.146Z,22
2018-07-16T11:36:47.401Z,23
2018-07-16T11:37:48.341Z,24
2018-07-16T11:38:49.084Z,24
2018-07-16T11:39:49.813Z,24
2018-07-16T11:40:50.552Z,23
2018-07-16T11:41:51.287Z,22
2018-07-16T11:42:52.026Z,22
2018-07-16T11:43:52.767Z,21
2018-07-16T11:44:53.514Z,21
2018-07-16T11:45:54.256Z,21
2018-07-16T11:46:55.005Z,21
2018-07-16T11:47:55.740Z,21
2018-07-16T11:48:56.488Z,20
2018-07-16T11:49:57.221Z,20
2018-07-16T11:50:58.003Z,19
2018-07-16T11:51:58.740Z,19
2018-07-16T11:52:59.478Z,20
2018-07-16T11:54:00.228Z,20
2018-07-16T11:55:00.979Z,20
2018-07-16T11:56:01.711Z,19
2018-07-16T11:57:02.446Z,19
2018-07-16T11:58:03.183Z,20
2018-07-16T11:59:04.017Z,21
2018-07-16T12:00:04.651Z,21
2018-07-16T12:01:05.383Z,23
2018-07-16T12:02:06.116Z,23
2018-07-16T12:03:06.851Z,22
2018-07-16T12:04:07.579Z,23
2018-07-16T12:05:08.373Z,24
2018-07-16T12:06:09.039Z,23
2018-07-16T12:07:09.787Z,22
2018-07-16T12:08:10.495Z,22
2018-07-16T12:09:11.225Z,22
2018-07-16T12:10:11.954Z,22
2018-07-16T12:11:12.694Z,22
2018-07-16T12:12:13.443Z,23
2018-07-16T12:13:14.150Z,23
2018-07-16T12:14:14.878Z,23
2018-07-16T12:15:15.610Z,23
2018-07-16T12:16:16.349Z,24
2018-07-16T12:17:17.090Z,24
2018-07-16T12:18:17.819Z,23
2018-07-16T12:19:18.559Z,23
2018-07-16T12:20:19.287Z,23
2018-07-16T12:21:20.015Z,22
2018-07-16T12:22:20.741Z,22
2018-07-16T12:23:21.470Z,24
2018-07-16T12:24:22.195Z,24
2018-07-16T12:25:22.924Z,25
2018-07-16T12:26:23.664Z,26
2018-07-16T12:27:24.394Z,25
2018-07-16T12:28:25.124Z,25
2018-07-16T12:29:25.865Z,26
2018-07-16T12:30:26.592Z,26
2018-07-16T12:31:27.319Z,27
2018-07-16T12:32:28.047Z,27
2018-07-16T12:33:28.773Z,26
2018-07-16T12:34:29.500Z,26
2018-07-16T12:35:30.228Z,26
2018-07-16T12:36:30.969Z,26
2018-07-16T12:37:31.696Z,25
2018-07-16T12:38:32.424Z,25
2018-07-16T12:39:33.166Z,25
2018-07-16T12:40:33.894Z,25
2018-07-16T12:41:34.756Z,24
2018-07-16T12:42:35.350Z,25
2018-07-16T12:43:36.077Z,25
2018-07-16T12:44:36.804Z,25
2018-07-16T12:45:37.539Z,26
2018-07-16T12:46:38.259Z,26
2018-07-16T12:47:38.999Z,26
2018-07-16T12:48:39.727Z,25
2018-07-16T12:49:40.456Z,25
2018-07-16T12:50:41.198Z,24
2018-07-16T12:51:41.925Z,25
2018-07-16T12:52:42.650Z,25
2018-07-16T12:53:43.377Z,25
2018-07-16T12:54:44.108Z,25
2018-07-16T12:55:44.832Z,25
2018-07-16T12:56:45.560Z,26
2018-07-16T12:57:46.287Z,26
2018-07-16T12:58:47.027Z,26
2018-07-16T12:59:47.752Z,26
2018-07-16T13:00:48.479Z,25
2018-07-16T13:01:49.207Z,26
2018-07-16T13:02:49.933Z,26
2018-07-16T13:03:50.660Z,26
2018-07-16T13:04:51.390Z,26
2018-07-16T13:05:52.116Z,26
2018-07-16T13:06:52.844Z,26
2018-07-16T13:07:53.585Z,26
2018-07-16T13:08:54.310Z,25
2018-07-16T13:09:55.052Z,26
2018-07-16T13:10:55.778Z,26
2018-07-16T13:11:56.505Z,26
2018-07-16T13:12:57.231Z,26
2018-07-16T13:13:57.969Z,26
2018-07-16T13:14:58.698Z,26
2018-07-16T13:15:59.504Z,26
2018-07-16T13:17:00.153Z,26
2018-07-16T13:18:00.876Z,26
2018-07-16T13:19:01.604Z,26
2018-07-16T13:20:02.331Z,26
2018-07-16T13:21:03.073Z,26
2018-07-16T13:22:03.803Z,26
2018-07-16T13:23:04.542Z,26
2018-07-16T13:24:05.270Z,26
2018-07-16T13:25:05.994Z,26
2018-07-16T13:26:06.723Z,26
2018-07-16T13:27:07.451Z,27
2018-07-16T13:28:08.191Z,27
2018-07-16T13:29:08.932Z,27
2018-07-16T13:30:09.663Z,26
2018-07-16T13:31:10.386Z,26
2018-07-16T13:32:11.112Z,27
2018-07-16T13:33:11.838Z,26
2018-07-16T13:34:12.570Z,26
2018-07-16T13:35:13.306Z,26
2018-07-16T13:36:14.034Z,26
2018-07-16T13:37:14.875Z,25
2018-07-16T13:38:15.501Z,25
2018-07-16T13:39:16.242Z,26
2018-07-16T13:40:16.969Z,26
2018-07-16T13:41:17.697Z,26
2018-07-16T13:42:18.437Z,26
2018-07-16T13:43:19.166Z,27
2018-07-16T13:44:19.892Z,26
2018-07-16T13:45:20.620Z,26
2018-07-16T13:46:21.356Z,25
2018-07-16T13:47:22.071Z,25
2018-07-16T13:48:22.798Z,25
2018-07-16T13:49:23.524Z,25
2018-07-16T13:50:24.255Z,25
2018-07-16T13:51:24.976Z,25
2018-07-16T13:52:25.702Z,25
2018-07-16T13:53:26.441Z,25
2018-07-16T13:54:27.167Z,25
2018-07-16T13:55:27.905Z,25
2018-07-16T13:56:28.632Z,25
2018-07-16T13:57:29.373Z,25
2018-07-16T13:58:30.100Z,24
2018-07-16T13:59:30.828Z,24
2018-07-16T14:00:31.555Z,23
2018-07-16T14:01:32.287Z,23
2018-07-16T14:02:33.025Z,23
2018-07-16T14:03:33.750Z,23
2018-07-16T14:04:34.476Z,24
2018-07-16T14:05:35.207Z,24
2018-07-16T14:06:35.948Z,24
2018-07-16T14:07:36.676Z,24
2018-07-16T14:08:37.405Z,24
2018-07-16T14:09:38.127Z,24
2018-07-16T14:10:38.854Z,23
2018-07-16T14:11:39.594Z,23
2018-07-16T14:12:40.321Z,24
2018-07-16T14:13:41.049Z,23
2018-07-16T14:14:41.776Z,24
2018-07-16T14:15:42.502Z,24
2018-07-16T14:16:43.233Z,24
2018-07-16T14:17:43.956Z,24
2018-07-16T14:18:44.683Z,23
2018-07-16T14:19:45.409Z,23
2018-07-16T14:20:46.134Z,24
2018-07-16T14:21:46.873Z,24
2018-07-16T14:22:47.598Z,24
2018-07-16T14:23:48.324Z,24
2018-07-16T14:24:49.051Z,24
2018-07-16T14:25:49.777Z,24
2018-07-16T14:26:50.504Z,23
2018-07-16T14:27:51.245Z,24
2018-07-16T14:28:51.971Z,24
2018-07-16T14:29:52.699Z,24
2018-07-16T14:30:53.436Z,24
2018-07-16T14:31:54.162Z,24
2018-07-16T14:32:54.903Z,24
2018-07-16T14:33:55.630Z,24
2018-07-16T14:34:56.358Z,24
2018-07-16T14:35:57.081Z,24
2018-07-16T14:36:57.806Z,24
2018-07-16T14:37:58.531Z,24
2018-07-16T14:38:59.258Z,24
2018-07-16T14:39:59.996Z,25
2018-07-16T14:41:00.711Z,24
2018-07-16T14:42:01.436Z,24
2018-07-16T14:43:02.161Z,24
2018-07-16T14:44:02.885Z,24
2018-07-16T14:45:03.612Z,24
2018-07-16T14:46:04.337Z,24
2018-07-16T14:47:05.065Z,24
2018-07-16T14:48:05.795Z,24
2018-07-16T14:49:06.515Z,24
2018-07-16T14:50:07.241Z,24
2018-07-16T14:51:08.007Z,24
2018-07-16T14:52:08.707Z,24
2018-07-16T14:53:09.430Z,24
2018-07-16T14:54:10.168Z,24
2018-07-16T14:55:10.895Z,24
2018-07-16T14:56:11.626Z,24
2018-07-16T14:57:12.440Z,23
2018-07-16T14:58:13.087Z,24
2018-07-16T14:59:13.811Z,24
2018-07-16T15:00:14.536Z,24
2018-07-16T15:01:15.263Z,24
2018-07-16T15:02:15.990Z,24
2018-07-16T15:03:16.717Z,24
2018-07-16T15:04:17.443Z,23
2018-07-16T15:05:18.169Z,22
2018-07-16T15:06:18.896Z,23
2018-07-16T15:07:19.622Z,24
2018-07-16T15:08:20.345Z,23
2018-07-16T15:09:21.073Z,24
2018-07-16T15:10:21.810Z,24
2018-07-16T15:11:22.548Z,24
2018-07-16T15:12:23.289Z,23
2018-07-16T15:13:24.015Z,23
2018-07-16T15:14:24.755Z,23
2018-07-16T15:15:25.477Z,24
2018-07-16T15:16:26.217Z,23
2018-07-16T15:17:26.946Z,24
2018-07-16T15:18:27.668Z,23
2018-07-16T15:19:28.394Z,24
2018-07-16T15:20:29.247Z,23
2018-07-16T15:21:30.031Z,22
2018-07-16T15:22:30.588Z,23
2018-07-16T15:23:31.339Z,22
2018-07-16T15:24:32.040Z,23
2018-07-16T15:25:32.765Z,22
2018-07-16T15:26:33.503Z,21
2018-07-16T15:27:34.226Z,22
2018-07-16T15:28:34.965Z,22
2018-07-16T15:29:35.700Z,23
2018-07-16T15:30:36.415Z,23
2018-07-16T15:31:37.139Z,23
2018-07-16T15:32:37.867Z,24
2018-07-16T15:33:38.590Z,24
2018-07-16T15:34:39.314Z,24
2018-07-16T15:35:40.074Z,24
2018-07-16T15:36:40.786Z,25
2018-07-16T15:37:41.515Z,24
2018-07-16T15:38:42.240Z,25
2018-07-16T15:39:42.965Z,26
2018-07-16T15:40:43.702Z,26
2018-07-16T15:41:44.428Z,26
2018-07-16T15:42:45.153Z,26
2018-07-16T15:43:45.873Z,27
2018-07-16T15:44:46.611Z,27
2018-07-16T15:45:47.349Z,27
2018-07-16T15:46:48.073Z,27
2018-07-16T15:47:48.797Z,27
2018-07-16T15:48:49.520Z,27
2018-07-16T15:49:50.244Z,26
2018-07-16T15:50:50.972Z,26
2018-07-16T15:51:51.708Z,27
2018-07-16T15:52:52.433Z,26
2018-07-16T15:56:22.353Z,27
2018-07-16T15:57:23.077Z,27
2018-07-16T15:58:23.815Z,27
2018-07-16T15:59:24.538Z,27
2018-07-16T16:00:25.275Z,27
2018-07-16T16:01:26.014Z,28
2018-07-16T16:02:26.738Z,28
2018-07-16T16:03:27.476Z,27
2018-07-16T16:04:28.200Z,27
2018-07-16T16:05:28.923Z,28
2018-07-16T16:06:29.646Z,27
2018-07-16T16:07:30.370Z,27
2018-07-16T16:08:31.094Z,27
2018-07-16T16:09:31.820Z,27
2018-07-16T16:10:32.545Z,27
2018-07-16T16:11:33.270Z,27
2018-07-16T16:12:34.022Z,28
2018-07-16T16:13:34.754Z,28
2018-07-16T16:14:35.493Z,28
2018-07-16T16:15:36.245Z,28
2018-07-16T16:16:36.961Z,28
2018-07-16T16:17:37.685Z,30
2018-07-16T16:18:38.411Z,30
2018-07-16T16:19:39.168Z,29
2018-07-16T16:20:39.862Z,29
2018-07-16T16:21:40.585Z,29
2018-07-16T16:22:41.310Z,28
2018-07-16T16:23:42.034Z,28
2018-07-16T16:24:42.773Z,28
2018-07-16T16:25:43.498Z,28